sensor_id;sensor_type;location;lat;lon;timestamp;P1;durP1;ratioP1;P2;durP2;ratioP2
24859;SDS011;12936;52.006;4.350;2023-04-25T00:02:15;13.90;;;2.60;;
24859;SDS011;12936;52.006;4.350;2023-04-25T00:04:46;10.70;;;2.57;;
24859;SDS011;12936;52.006;4.350;2023-04-25T00:07:37;9.87;;;2.10;;
24859;SDS011;12936;52.006;4.350;2023-04-25T00:10:14;13.70;;;3.57;;
24859;SDS011;12936;52.006;4.350;2023-04-25T00:12:44;14.10;;;2.93;;
24859;SDS011;12936;52.006;4.350;2023-04-25T00:15:15;13.20;;;2.50;;
24859;SDS011;12936;52.006;4.350;2023-04-25T00:18:03;13.07;;;2.60;;
24859;SDS011;12936;52.006;4.350;2023-04-25T00:20:48;15.87;;;3.20;;
24859;SDS011;12936;52.006;4.350;2023-04-25T00:23:26;13.30;;;2.80;;
24859;SDS011;12936;52.006;4.350;2023-04-25T00:26:37;9.17;;;2.70;;
24859;SDS011;12936;52.006;4.350;2023-04-25T00:29:29;13.03;;;3.07;;
24859;SDS011;12936;52.006;4.350;2023-04-25T00:31:58;11.03;;;2.50;;
24859;SDS011;12936;52.006;4.350;2023-04-25T00:34:28;11.93;;;2.67;;
24859;SDS011;12936;52.006;4.350;2023-04-25T00:36:56;11.37;;;2.27;;
24859;SDS011;12936;52.006;4.350;2023-04-25T00:39:25;12.93;;;2.40;;
24859;SDS011;12936;52.006;4.350;2023-04-25T00:41:58;12.70;;;2.50;;
24859;SDS011;12936;52.006;4.350;2023-04-25T00:44:27;11.33;;;2.20;;
24859;SDS011;12936;52.006;4.350;2023-04-25T00:46:58;13.83;;;2.60;;
24859;SDS011;12936;52.006;4.350;2023-04-25T00:50:10;14.43;;;2.83;;
24859;SDS011;12936;52.006;4.350;2023-04-25T00:52:41;14.67;;;2.53;;
24859;SDS011;12936;52.006;4.350;2023-04-25T00:55:12;15.03;;;3.23;;
24859;SDS011;12936;52.006;4.350;2023-04-25T00:57:46;14.97;;;2.63;;
24859;SDS011;12936;52.006;4.350;2023-04-25T01:03:00;15.17;;;2.63;;
24859;SDS011;12936;52.006;4.350;2023-04-25T01:05:39;13.43;;;2.87;;
24859;SDS011;12936;52.006;4.350;2023-04-25T01:08:34;12.40;;;2.23;;
24859;SDS011;12936;52.006;4.350;2023-04-25T01:11:03;12.53;;;2.23;;
24859;SDS011;12936;52.006;4.350;2023-04-25T01:13:38;8.57;;;1.97;;
24859;SDS011;12936;52.006;4.350;2023-04-25T01:16:10;10.20;;;2.23;;
24859;SDS011;12936;52.006;4.350;2023-04-25T01:18:38;12.70;;;2.40;;
24859;SDS011;12936;52.006;4.350;2023-04-25T01:21:29;9.50;;;2.17;;
24859;SDS011;12936;52.006;4.350;2023-04-25T01:23:58;10.97;;;2.77;;
24859;SDS011;12936;52.006;4.350;2023-04-25T01:26:47;11.47;;;2.70;;
24859;SDS011;12936;52.006;4.350;2023-04-25T01:29:19;11.37;;;2.33;;
24859;SDS011;12936;52.006;4.350;2023-04-25T01:31:48;14.30;;;2.30;;
24859;SDS011;12936;52.006;4.350;2023-04-25T01:34:18;14.80;;;2.20;;
24859;SDS011;12936;52.006;4.350;2023-04-25T01:36:54;10.77;;;2.33;;
24859;SDS011;12936;52.006;4.350;2023-04-25T01:39:23;12.23;;;2.43;;
24859;SDS011;12936;52.006;4.350;2023-04-25T01:41:53;8.40;;;2.10;;
24859;SDS011;12936;52.006;4.350;2023-04-25T01:44:25;11.80;;;2.43;;
24859;SDS011;12936;52.006;4.350;2023-04-25T01:46:54;10.37;;;2.27;;
24859;SDS011;12936;52.006;4.350;2023-04-25T01:49:24;13.80;;;2.23;;
24859;SDS011;12936;52.006;4.350;2023-04-25T01:51:58;11.37;;;2.43;;
24859;SDS011;12936;52.006;4.350;2023-04-25T01:54:53;8.50;;;2.40;;
24859;SDS011;12936;52.006;4.350;2023-04-25T01:57:24;8.33;;;2.00;;
24859;SDS011;12936;52.006;4.350;2023-04-25T01:59:55;13.30;;;2.33;;
24859;SDS011;12936;52.006;4.350;2023-04-25T02:02:30;9.77;;;2.47;;
24859;SDS011;12936;52.006;4.350;2023-04-25T02:05:02;7.20;;;2.00;;
24859;SDS011;12936;52.006;4.350;2023-04-25T02:07:32;10.93;;;2.07;;
24859;SDS011;12936;52.006;4.350;2023-04-25T02:10:10;11.50;;;1.90;;
24859;SDS011;12936;52.006;4.350;2023-04-25T02:12:43;14.90;;;2.47;;
24859;SDS011;12936;52.006;4.350;2023-04-25T02:15:12;16.00;;;2.60;;
24859;SDS011;12936;52.006;4.350;2023-04-25T02:17:43;13.17;;;3.07;;
24859;SDS011;12936;52.006;4.350;2023-04-25T02:20:32;9.63;;;1.93;;
24859;SDS011;12936;52.006;4.350;2023-04-25T02:23:48;14.67;;;2.17;;
24859;SDS011;12936;52.006;4.350;2023-04-25T02:26:18;13.67;;;2.60;;
24859;SDS011;12936;52.006;4.350;2023-04-25T02:28:50;15.97;;;2.73;;
24859;SDS011;12936;52.006;4.350;2023-04-25T02:31:22;16.93;;;2.57;;
24859;SDS011;12936;52.006;4.350;2023-04-25T02:33:54;11.73;;;2.00;;
24859;SDS011;12936;52.006;4.350;2023-04-25T02:36:24;10.07;;;1.97;;
24859;SDS011;12936;52.006;4.350;2023-04-25T02:38:57;11.03;;;2.27;;
24859;SDS011;12936;52.006;4.350;2023-04-25T02:41:27;10.90;;;1.93;;
24859;SDS011;12936;52.006;4.350;2023-04-25T02:43:56;12.00;;;2.57;;
24859;SDS011;12936;52.006;4.350;2023-04-25T02:46:51;7.00;;;2.30;;
24859;SDS011;12936;52.006;4.350;2023-04-25T02:49:48;15.83;;;2.20;;
24859;SDS011;12936;52.006;4.350;2023-04-25T02:52:20;13.77;;;2.10;;
24859;SDS011;12936;52.006;4.350;2023-04-25T02:54:53;10.10;;;1.60;;
24859;SDS011;12936;52.006;4.350;2023-04-25T02:57:45;10.13;;;2.10;;
24859;SDS011;12936;52.006;4.350;2023-04-25T03:00:15;10.83;;;1.90;;
24859;SDS011;12936;52.006;4.350;2023-04-25T03:02:46;12.07;;;1.97;;
24859;SDS011;12936;52.006;4.350;2023-04-25T03:05:15;15.60;;;2.10;;
24859;SDS011;12936;52.006;4.350;2023-04-25T03:07:44;11.53;;;2.00;;
24859;SDS011;12936;52.006;4.350;2023-04-25T03:10:17;11.33;;;1.77;;
24859;SDS011;12936;52.006;4.350;2023-04-25T03:12:53;6.90;;;1.97;;
24859;SDS011;12936;52.006;4.350;2023-04-25T03:15:22;10.83;;;1.83;;
24859;SDS011;12936;52.006;4.350;2023-04-25T03:17:52;15.97;;;1.93;;
24859;SDS011;12936;52.006;4.350;2023-04-25T03:20:23;9.07;;;1.40;;
24859;SDS011;12936;52.006;4.350;2023-04-25T03:22:53;10.73;;;1.80;;
24859;SDS011;12936;52.006;4.350;2023-04-25T03:25:27;9.00;;;2.20;;
24859;SDS011;12936;52.006;4.350;2023-04-25T03:27:55;12.50;;;1.40;;
24859;SDS011;12936;52.006;4.350;2023-04-25T03:30:23;9.90;;;1.90;;
24859;SDS011;12936;52.006;4.350;2023-04-25T03:33:18;9.40;;;2.40;;
24859;SDS011;12936;52.006;4.350;2023-04-25T03:35:47;11.93;;;1.90;;
24859;SDS011;12936;52.006;4.350;2023-04-25T03:38:37;8.47;;;1.50;;
24859;SDS011;12936;52.006;4.350;2023-04-25T03:41:29;9.37;;;1.73;;
24859;SDS011;12936;52.006;4.350;2023-04-25T03:44:02;9.50;;;1.43;;
24859;SDS011;12936;52.006;4.350;2023-04-25T03:46:34;8.73;;;1.90;;
24859;SDS011;12936;52.006;4.350;2023-04-25T03:49:05;9.90;;;1.60;;
24859;SDS011;12936;52.006;4.350;2023-04-25T03:51:36;7.57;;;1.73;;
24859;SDS011;12936;52.006;4.350;2023-04-25T03:54:04;14.43;;;1.90;;
24859;SDS011;12936;52.006;4.350;2023-04-25T03:56:35;7.40;;;1.70;;
24859;SDS011;12936;52.006;4.350;2023-04-25T03:59:47;9.93;;;2.10;;
24859;SDS011;12936;52.006;4.350;2023-04-25T04:02:18;8.83;;;1.97;;
24859;SDS011;12936;52.006;4.350;2023-04-25T04:04:47;7.97;;;1.67;;
24859;SDS011;12936;52.006;4.350;2023-04-25T04:07:18;11.97;;;1.90;;
24859;SDS011;12936;52.006;4.350;2023-04-25T04:10:07;11.87;;;2.23;;
24859;SDS011;12936;52.006;4.350;2023-04-25T04:12:44;5.70;;;1.73;;
24859;SDS011;12936;52.006;4.350;2023-04-25T04:15:35;7.90;;;1.40;;
24859;SDS011;12936;52.006;4.350;2023-04-25T04:18:11;10.90;;;1.63;;
24859;SDS011;12936;52.006;4.350;2023-04-25T04:20:40;7.70;;;1.43;;
24859;SDS011;12936;52.006;4.350;2023-04-25T04:23:09;11.33;;;1.47;;
24859;SDS011;12936;52.006;4.350;2023-04-25T04:25:50;7.73;;;1.20;;
24859;SDS011;12936;52.006;4.350;2023-04-25T04:28:23;9.63;;;1.20;;
24859;SDS011;12936;52.006;4.350;2023-04-25T04:30:57;8.00;;;1.70;;
24859;SDS011;12936;52.006;4.350;2023-04-25T04:33:25;9.80;;;1.60;;
24859;SDS011;12936;52.006;4.350;2023-04-25T04:35:56;10.33;;;1.63;;
24859;SDS011;12936;52.006;4.350;2023-04-25T04:38:49;15.53;;;2.17;;
24859;SDS011;12936;52.006;4.350;2023-04-25T04:41:19;13.47;;;2.00;;
24859;SDS011;12936;52.006;4.350;2023-04-25T04:44:52;11.43;;;1.73;;
24859;SDS011;12936;52.006;4.350;2023-04-25T04:47:22;11.33;;;2.23;;
24859;SDS011;12936;52.006;4.350;2023-04-25T04:49:57;8.70;;;2.27;;
24859;SDS011;12936;52.006;4.350;2023-04-25T04:52:25;14.50;;;2.20;;
24859;SDS011;12936;52.006;4.350;2023-04-25T04:54:53;9.87;;;1.70;;
24859;SDS011;12936;52.006;4.350;2023-04-25T04:57:23;14.53;;;2.23;;
24859;SDS011;12936;52.006;4.350;2023-04-25T04:59:54;7.13;;;1.77;;
24859;SDS011;12936;52.006;4.350;2023-04-25T05:02:22;7.53;;;1.53;;
24859;SDS011;12936;52.006;4.350;2023-04-25T05:04:50;9.80;;;1.90;;
24859;SDS011;12936;52.006;4.350;2023-04-25T05:07:18;9.87;;;2.03;;
24859;SDS011;12936;52.006;4.350;2023-04-25T05:09:47;6.43;;;1.70;;
24859;SDS011;12936;52.006;4.350;2023-04-25T05:12:15;7.93;;;1.77;;
24859;SDS011;12936;52.006;4.350;2023-04-25T05:14:43;12.27;;;2.43;;
24859;SDS011;12936;52.006;4.350;2023-04-25T05:17:12;5.47;;;1.47;;
24859;SDS011;12936;52.006;4.350;2023-04-25T05:19:40;9.80;;;1.70;;
24859;SDS011;12936;52.006;4.350;2023-04-25T05:22:08;7.07;;;1.50;;
24859;SDS011;12936;52.006;4.350;2023-04-25T05:24:36;5.60;;;1.27;;
24859;SDS011;12936;52.006;4.350;2023-04-25T05:27:05;5.17;;;1.47;;
24859;SDS011;12936;52.006;4.350;2023-04-25T05:29:33;8.17;;;1.27;;
24859;SDS011;12936;52.006;4.350;2023-04-25T05:32:01;7.50;;;1.30;;
24859;SDS011;12936;52.006;4.350;2023-04-25T05:34:30;4.23;;;1.13;;
24859;SDS011;12936;52.006;4.350;2023-04-25T05:36:58;7.23;;;1.60;;
24859;SDS011;12936;52.006;4.350;2023-04-25T05:39:27;4.37;;;1.13;;
24859;SDS011;12936;52.006;4.350;2023-04-25T05:41:55;5.70;;;1.03;;
24859;SDS011;12936;52.006;4.350;2023-04-25T05:44:23;5.47;;;1.13;;
24859;SDS011;12936;52.006;4.350;2023-04-25T05:46:51;7.83;;;1.30;;
24859;SDS011;12936;52.006;4.350;2023-04-25T05:49:19;5.07;;;1.30;;
24859;SDS011;12936;52.006;4.350;2023-04-25T05:51:49;4.70;;;1.03;;
24859;SDS011;12936;52.006;4.350;2023-04-25T05:54:17;7.13;;;1.00;;
24859;SDS011;12936;52.006;4.350;2023-04-25T05:56:45;5.83;;;1.23;;
24859;SDS011;12936;52.006;4.350;2023-04-25T05:59:13;6.47;;;1.30;;
24859;SDS011;12936;52.006;4.350;2023-04-25T06:01:41;5.70;;;1.37;;
24859;SDS011;12936;52.006;4.350;2023-04-25T06:04:09;11.20;;;1.60;;
24859;SDS011;12936;52.006;4.350;2023-04-25T06:06:37;5.73;;;1.43;;
24859;SDS011;12936;52.006;4.350;2023-04-25T06:09:07;6.60;;;1.70;;
24859;SDS011;12936;52.006;4.350;2023-04-25T06:11:35;7.40;;;1.60;;
24859;SDS011;12936;52.006;4.350;2023-04-25T06:14:03;4.37;;;1.30;;
24859;SDS011;12936;52.006;4.350;2023-04-25T06:16:31;6.27;;;1.47;;
24859;SDS011;12936;52.006;4.350;2023-04-25T06:18:59;6.87;;;1.63;;
24859;SDS011;12936;52.006;4.350;2023-04-25T06:21:27;11.87;;;1.63;;
24859;SDS011;12936;52.006;4.350;2023-04-25T06:23:55;6.73;;;1.47;;
24859;SDS011;12936;52.006;4.350;2023-04-25T06:26:24;5.97;;;1.40;;
24859;SDS011;12936;52.006;4.350;2023-04-25T06:28:52;8.90;;;1.53;;
24859;SDS011;12936;52.006;4.350;2023-04-25T06:31:20;9.23;;;1.47;;
24859;SDS011;12936;52.006;4.350;2023-04-25T06:33:48;11.87;;;1.90;;
24859;SDS011;12936;52.006;4.350;2023-04-25T06:36:17;9.80;;;1.60;;
24859;SDS011;12936;52.006;4.350;2023-04-25T06:38:46;11.77;;;1.60;;
24859;SDS011;12936;52.006;4.350;2023-04-25T06:41:15;6.30;;;1.30;;
24859;SDS011;12936;52.006;4.350;2023-04-25T06:43:44;10.53;;;2.00;;
24859;SDS011;12936;52.006;4.350;2023-04-25T06:46:12;7.23;;;1.93;;
24859;SDS011;12936;52.006;4.350;2023-04-25T06:48:40;7.20;;;1.50;;
24859;SDS011;12936;52.006;4.350;2023-04-25T06:51:08;11.13;;;1.80;;
24859;SDS011;12936;52.006;4.350;2023-04-25T06:53:36;11.40;;;1.60;;
24859;SDS011;12936;52.006;4.350;2023-04-25T06:56:04;6.20;;;1.43;;
24859;SDS011;12936;52.006;4.350;2023-04-25T06:58:34;6.87;;;1.27;;
24859;SDS011;12936;52.006;4.350;2023-04-25T07:01:03;5.40;;;1.20;;
24859;SDS011;12936;52.006;4.350;2023-04-25T07:03:32;10.30;;;1.63;;
24859;SDS011;12936;52.006;4.350;2023-04-25T07:06:00;5.37;;;1.40;;
24859;SDS011;12936;52.006;4.350;2023-04-25T07:08:28;7.40;;;1.20;;
24859;SDS011;12936;52.006;4.350;2023-04-25T07:10:57;8.83;;;1.20;;
24859;SDS011;12936;52.006;4.350;2023-04-25T07:13:25;5.97;;;1.23;;
24859;SDS011;12936;52.006;4.350;2023-04-25T07:15:53;7.60;;;1.30;;
24859;SDS011;12936;52.006;4.350;2023-04-25T07:18:23;5.50;;;1.10;;
24859;SDS011;12936;52.006;4.350;2023-04-25T07:20:51;9.40;;;1.30;;
24859;SDS011;12936;52.006;4.350;2023-04-25T07:23:20;3.83;;;0.90;;
24859;SDS011;12936;52.006;4.350;2023-04-25T07:25:47;6.90;;;1.10;;
24859;SDS011;12936;52.006;4.350;2023-04-25T07:28:16;7.97;;;1.50;;
24859;SDS011;12936;52.006;4.350;2023-04-25T07:30:45;11.10;;;1.60;;
24859;SDS011;12936;52.006;4.350;2023-04-25T07:33:13;7.97;;;1.10;;
24859;SDS011;12936;52.006;4.350;2023-04-25T07:35:42;12.10;;;1.20;;
24859;SDS011;12936;52.006;4.350;2023-04-25T07:38:10;7.40;;;0.93;;
24859;SDS011;12936;52.006;4.350;2023-04-25T07:40:39;4.90;;;0.77;;
24859;SDS011;12936;52.006;4.350;2023-04-25T07:43:07;6.20;;;1.20;;
24859;SDS011;12936;52.006;4.350;2023-04-25T07:45:35;8.93;;;1.43;;
24859;SDS011;12936;52.006;4.350;2023-04-25T07:48:03;5.17;;;0.83;;
24859;SDS011;12936;52.006;4.350;2023-04-25T07:50:32;5.63;;;1.00;;
24859;SDS011;12936;52.006;4.350;2023-04-25T07:53:01;8.33;;;0.90;;
24859;SDS011;12936;52.006;4.350;2023-04-25T07:55:29;8.63;;;1.57;;
24859;SDS011;12936;52.006;4.350;2023-04-25T07:57:57;7.13;;;1.20;;
24859;SDS011;12936;52.006;4.350;2023-04-25T08:00:25;8.50;;;1.33;;
24859;SDS011;12936;52.006;4.350;2023-04-25T08:02:56;8.73;;;1.27;;
24859;SDS011;12936;52.006;4.350;2023-04-25T08:05:24;6.33;;;1.13;;
24859;SDS011;12936;52.006;4.350;2023-04-25T08:07:52;8.97;;;1.20;;
24859;SDS011;12936;52.006;4.350;2023-04-25T08:10:22;4.80;;;1.00;;
24859;SDS011;12936;52.006;4.350;2023-04-25T08:12:50;4.70;;;0.70;;
24859;SDS011;12936;52.006;4.350;2023-04-25T08:15:18;5.20;;;0.90;;
24859;SDS011;12936;52.006;4.350;2023-04-25T08:17:46;4.53;;;1.00;;
24859;SDS011;12936;52.006;4.350;2023-04-25T08:20:14;6.57;;;0.90;;
24859;SDS011;12936;52.006;4.350;2023-04-25T08:22:42;4.67;;;1.10;;
24859;SDS011;12936;52.006;4.350;2023-04-25T08:25:10;4.57;;;0.67;;
24859;SDS011;12936;52.006;4.350;2023-04-25T08:27:40;6.40;;;0.80;;
24859;SDS011;12936;52.006;4.350;2023-04-25T08:30:08;5.37;;;1.27;;
24859;SDS011;12936;52.006;4.350;2023-04-25T08:32:36;6.40;;;1.10;;
24859;SDS011;12936;52.006;4.350;2023-04-25T08:35:05;6.20;;;1.27;;
24859;SDS011;12936;52.006;4.350;2023-04-25T08:37:33;5.07;;;1.03;;
24859;SDS011;12936;52.006;4.350;2023-04-25T08:40:03;9.20;;;1.80;;
24859;SDS011;12936;52.006;4.350;2023-04-25T08:42:33;6.53;;;1.23;;
24859;SDS011;12936;52.006;4.350;2023-04-25T08:45:03;6.20;;;1.10;;
24859;SDS011;12936;52.006;4.350;2023-04-25T08:47:33;5.07;;;1.20;;
24859;SDS011;12936;52.006;4.350;2023-04-25T08:50:02;12.27;;;1.37;;
24859;SDS011;12936;52.006;4.350;2023-04-25T08:52:33;27.70;;;4.63;;
24859;SDS011;12936;52.006;4.350;2023-04-25T08:55:05;0.97;;;0.40;;
24859;SDS011;12936;52.006;4.350;2023-04-25T08:57:37;0.00;;;0.00;;
24859;SDS011;12936;52.006;4.350;2023-04-25T09:00:08;3.50;;;1.07;;
24859;SDS011;12936;52.006;4.350;2023-04-25T09:02:38;0.20;;;0.20;;
24859;SDS011;12936;52.006;4.350;2023-04-25T09:05:07;0.00;;;0.00;;
24859;SDS011;12936;52.006;4.350;2023-04-25T09:07:36;0.00;;;0.00;;
24859;SDS011;12936;52.006;4.350;2023-04-25T09:10:04;0.00;;;0.00;;
24859;SDS011;12936;52.006;4.350;2023-04-25T09:12:33;0.00;;;0.00;;
24859;SDS011;12936;52.006;4.350;2023-04-25T09:15:03;0.00;;;0.00;;
24859;SDS011;12936;52.006;4.350;2023-04-25T09:17:34;0.00;;;0.00;;
24859;SDS011;12936;52.006;4.350;2023-04-25T09:20:07;0.00;;;0.00;;
24859;SDS011;12936;52.006;4.350;2023-04-25T09:22:36;2.13;;;1.33;;
24859;SDS011;12936;52.006;4.350;2023-04-25T09:25:07;0.00;;;0.00;;
24859;SDS011;12936;52.006;4.350;2023-04-25T09:27:36;2.03;;;0.20;;
24859;SDS011;12936;52.006;4.350;2023-04-25T09:30:17;0.30;;;0.30;;
24859;SDS011;12936;52.006;4.350;2023-04-25T09:32:47;0.30;;;0.20;;
24859;SDS011;12936;52.006;4.350;2023-04-25T09:35:23;4.30;;;1.20;;
24859;SDS011;12936;52.006;4.350;2023-04-25T09:37:52;0.00;;;0.00;;
24859;SDS011;12936;52.006;4.350;2023-04-25T09:40:21;0.00;;;0.00;;
24859;SDS011;12936;52.006;4.350;2023-04-25T09:42:49;0.00;;;0.00;;
24859;SDS011;12936;52.006;4.350;2023-04-25T09:45:17;0.00;;;0.00;;
24859;SDS011;12936;52.006;4.350;2023-04-25T09:47:47;0.00;;;0.00;;
24859;SDS011;12936;52.006;4.350;2023-04-25T09:50:17;0.37;;;0.37;;
24859;SDS011;12936;52.006;4.350;2023-04-25T09:52:46;0.00;;;0.00;;
24859;SDS011;12936;52.006;4.350;2023-04-25T09:55:30;0.20;;;0.20;;
24859;SDS011;12936;52.006;4.350;2023-04-25T09:58:00;0.00;;;0.00;;
24859;SDS011;12936;52.006;4.350;2023-04-25T10:00:32;8.37;;;1.60;;
24859;SDS011;12936;52.006;4.350;2023-04-25T10:03:02;7.73;;;1.20;;
24859;SDS011;12936;52.006;4.350;2023-04-25T10:05:32;3.93;;;1.03;;
24859;SDS011;12936;52.006;4.350;2023-04-25T10:08:04;5.17;;;1.07;;
24859;SDS011;12936;52.006;4.350;2023-04-25T10:10:35;6.90;;;1.17;;
24859;SDS011;12936;52.006;4.350;2023-04-25T10:13:04;8.83;;;1.33;;
24859;SDS011;12936;52.006;4.350;2023-04-25T10:15:34;6.80;;;1.23;;
24859;SDS011;12936;52.006;4.350;2023-04-25T10:18:07;4.87;;;1.20;;
24859;SDS011;12936;52.006;4.350;2023-04-25T10:20:35;7.97;;;1.13;;
24859;SDS011;12936;52.006;4.350;2023-04-25T10:23:06;9.77;;;1.43;;
24859;SDS011;12936;52.006;4.350;2023-04-25T10:25:41;7.67;;;1.00;;
24859;SDS011;12936;52.006;4.350;2023-04-25T10:28:09;5.27;;;1.07;;
24859;SDS011;12936;52.006;4.350;2023-04-25T10:30:37;7.43;;;1.37;;
24859;SDS011;12936;52.006;4.350;2023-04-25T10:33:33;6.17;;;1.00;;
24859;SDS011;12936;52.006;4.350;2023-04-25T10:36:10;5.93;;;0.97;;
24859;SDS011;12936;52.006;4.350;2023-04-25T10:38:39;6.20;;;1.20;;
24859;SDS011;12936;52.006;4.350;2023-04-25T10:41:07;7.47;;;1.10;;
24859;SDS011;12936;52.006;4.350;2023-04-25T10:43:37;8.77;;;1.37;;
24859;SDS011;12936;52.006;4.350;2023-04-25T10:46:13;8.10;;;1.27;;
24859;SDS011;12936;52.006;4.350;2023-04-25T10:48:47;6.80;;;1.20;;
24859;SDS011;12936;52.006;4.350;2023-04-25T10:51:16;4.57;;;1.20;;
24859;SDS011;12936;52.006;4.350;2023-04-25T10:53:46;10.60;;;1.40;;
24859;SDS011;12936;52.006;4.350;2023-04-25T10:56:25;12.87;;;1.10;;
24859;SDS011;12936;52.006;4.350;2023-04-25T10:59:07;5.17;;;1.07;;
24859;SDS011;12936;52.006;4.350;2023-04-25T11:01:37;7.83;;;1.40;;
24859;SDS011;12936;52.006;4.350;2023-04-25T11:04:20;6.50;;;1.33;;
24859;SDS011;12936;52.006;4.350;2023-04-25T11:06:58;7.40;;;1.10;;
24859;SDS011;12936;52.006;4.350;2023-04-25T11:09:39;5.97;;;1.20;;
24859;SDS011;12936;52.006;4.350;2023-04-25T11:12:08;8.50;;;1.20;;
24859;SDS011;12936;52.006;4.350;2023-04-25T11:14:38;6.43;;;1.10;;
24859;SDS011;12936;52.006;4.350;2023-04-25T11:17:08;4.37;;;0.80;;
24859;SDS011;12936;52.006;4.350;2023-04-25T11:19:39;4.37;;;0.90;;
24859;SDS011;12936;52.006;4.350;2023-04-25T11:22:07;6.57;;;1.10;;
24859;SDS011;12936;52.006;4.350;2023-04-25T11:24:37;6.77;;;0.93;;
24859;SDS011;12936;52.006;4.350;2023-04-25T11:27:05;9.03;;;1.20;;
24859;SDS011;12936;52.006;4.350;2023-04-25T11:29:34;7.97;;;1.37;;
24859;SDS011;12936;52.006;4.350;2023-04-25T11:32:02;6.90;;;1.07;;
24859;SDS011;12936;52.006;4.350;2023-04-25T11:34:33;5.37;;;0.97;;
24859;SDS011;12936;52.006;4.350;2023-04-25T11:37:03;6.23;;;1.13;;
24859;SDS011;12936;52.006;4.350;2023-04-25T11:39:32;3.83;;;0.80;;
24859;SDS011;12936;52.006;4.350;2023-04-25T11:42:01;7.73;;;1.00;;
24859;SDS011;12936;52.006;4.350;2023-04-25T11:44:39;4.63;;;1.20;;
24859;SDS011;12936;52.006;4.350;2023-04-25T11:47:07;9.20;;;1.13;;
24859;SDS011;12936;52.006;4.350;2023-04-25T11:49:36;10.80;;;1.23;;
24859;SDS011;12936;52.006;4.350;2023-04-25T11:52:07;12.23;;;1.43;;
24859;SDS011;12936;52.006;4.350;2023-04-25T11:54:35;8.57;;;1.33;;
24859;SDS011;12936;52.006;4.350;2023-04-25T11:57:04;6.10;;;1.07;;
24859;SDS011;12936;52.006;4.350;2023-04-25T11:59:32;10.23;;;1.47;;
24859;SDS011;12936;52.006;4.350;2023-04-25T12:02:00;6.03;;;1.20;;
24859;SDS011;12936;52.006;4.350;2023-04-25T12:04:29;11.13;;;2.13;;
24859;SDS011;12936;52.006;4.350;2023-04-25T12:06:59;3.33;;;1.03;;
24859;SDS011;12936;52.006;4.350;2023-04-25T12:09:29;7.13;;;1.50;;
24859;SDS011;12936;52.006;4.350;2023-04-25T12:11:59;3.60;;;1.03;;
24859;SDS011;12936;52.006;4.350;2023-04-25T12:14:30;8.90;;;1.10;;
24859;SDS011;12936;52.006;4.350;2023-04-25T12:17:00;6.63;;;1.30;;
24859;SDS011;12936;52.006;4.350;2023-04-25T12:19:31;8.10;;;1.43;;
24859;SDS011;12936;52.006;4.350;2023-04-25T12:22:00;3.60;;;1.37;;
24859;SDS011;12936;52.006;4.350;2023-04-25T12:24:33;7.07;;;1.63;;
24859;SDS011;12936;52.006;4.350;2023-04-25T12:27:05;9.07;;;1.50;;
24859;SDS011;12936;52.006;4.350;2023-04-25T12:29:34;10.37;;;1.27;;
24859;SDS011;12936;52.006;4.350;2023-04-25T12:32:15;5.33;;;1.13;;
24859;SDS011;12936;52.006;4.350;2023-04-25T12:34:43;5.73;;;1.10;;
24859;SDS011;12936;52.006;4.350;2023-04-25T12:37:12;7.77;;;1.60;;
24859;SDS011;12936;52.006;4.350;2023-04-25T12:39:42;6.67;;;1.03;;
24859;SDS011;12936;52.006;4.350;2023-04-25T12:42:10;6.47;;;0.90;;
24859;SDS011;12936;52.006;4.350;2023-04-25T12:44:39;5.30;;;1.00;;
24859;SDS011;12936;52.006;4.350;2023-04-25T12:47:07;6.50;;;0.93;;
24859;SDS011;12936;52.006;4.350;2023-04-25T12:49:36;8.57;;;1.20;;
24859;SDS011;12936;52.006;4.350;2023-04-25T12:52:04;5.53;;;1.17;;
24859;SDS011;12936;52.006;4.350;2023-04-25T12:54:32;9.03;;;1.10;;
24859;SDS011;12936;52.006;4.350;2023-04-25T12:57:01;5.07;;;1.23;;
24859;SDS011;12936;52.006;4.350;2023-04-25T12:59:30;9.23;;;1.13;;
24859;SDS011;12936;52.006;4.350;2023-04-25T13:01:58;5.33;;;0.97;;
24859;SDS011;12936;52.006;4.350;2023-04-25T13:04:26;6.57;;;2.00;;
24859;SDS011;12936;52.006;4.350;2023-04-25T13:06:54;9.27;;;1.40;;
24859;SDS011;12936;52.006;4.350;2023-04-25T13:09:22;4.53;;;1.23;;
24859;SDS011;12936;52.006;4.350;2023-04-25T13:11:51;7.37;;;1.00;;
24859;SDS011;12936;52.006;4.350;2023-04-25T13:14:24;5.93;;;1.30;;
24859;SDS011;12936;52.006;4.350;2023-04-25T13:16:53;6.37;;;0.97;;
24859;SDS011;12936;52.006;4.350;2023-04-25T13:19:21;8.67;;;1.43;;
24859;SDS011;12936;52.006;4.350;2023-04-25T13:21:49;5.33;;;0.83;;
24859;SDS011;12936;52.006;4.350;2023-04-25T13:24:37;6.93;;;1.33;;
24859;SDS011;12936;52.006;4.350;2023-04-25T13:27:05;8.47;;;1.20;;
24859;SDS011;12936;52.006;4.350;2023-04-25T13:29:34;9.60;;;1.23;;
24859;SDS011;12936;52.006;4.350;2023-04-25T13:32:04;6.43;;;1.50;;
24859;SDS011;12936;52.006;4.350;2023-04-25T13:34:32;4.00;;;1.30;;
24859;SDS011;12936;52.006;4.350;2023-04-25T13:37:00;5.77;;;0.93;;
24859;SDS011;12936;52.006;4.350;2023-04-25T13:39:28;8.37;;;1.70;;
24859;SDS011;12936;52.006;4.350;2023-04-25T13:41:56;4.80;;;1.17;;
24859;SDS011;12936;52.006;4.350;2023-04-25T13:44:24;7.83;;;1.40;;
24859;SDS011;12936;52.006;4.350;2023-04-25T13:46:54;12.30;;;1.37;;
24859;SDS011;12936;52.006;4.350;2023-04-25T13:49:22;7.20;;;1.10;;
24859;SDS011;12936;52.006;4.350;2023-04-25T13:51:50;3.97;;;0.87;;
24859;SDS011;12936;52.006;4.350;2023-04-25T13:54:18;4.63;;;0.90;;
24859;SDS011;12936;52.006;4.350;2023-04-25T13:56:46;4.87;;;1.00;;
24859;SDS011;12936;52.006;4.350;2023-04-25T13:59:15;3.23;;;0.97;;
24859;SDS011;12936;52.006;4.350;2023-04-25T14:01:43;4.33;;;0.93;;
24859;SDS011;12936;52.006;4.350;2023-04-25T14:04:13;4.73;;;0.80;;
24859;SDS011;12936;52.006;4.350;2023-04-25T14:06:41;4.77;;;0.70;;
24859;SDS011;12936;52.006;4.350;2023-04-25T14:09:09;7.17;;;1.00;;
24859;SDS011;12936;52.006;4.350;2023-04-25T14:11:38;7.60;;;1.47;;
24859;SDS011;12936;52.006;4.350;2023-04-25T14:14:06;7.67;;;1.30;;
24859;SDS011;12936;52.006;4.350;2023-04-25T14:16:35;2.90;;;0.80;;
24859;SDS011;12936;52.006;4.350;2023-04-25T14:19:03;5.63;;;1.30;;
24859;SDS011;12936;52.006;4.350;2023-04-25T14:21:32;5.23;;;1.10;;
24859;SDS011;12936;52.006;4.350;2023-04-25T14:24:00;8.60;;;1.37;;
24859;SDS011;12936;52.006;4.350;2023-04-25T14:26:28;6.80;;;1.37;;
24859;SDS011;12936;52.006;4.350;2023-04-25T14:28:56;5.13;;;1.23;;
24859;SDS011;12936;52.006;4.350;2023-04-25T14:31:24;5.37;;;1.20;;
24859;SDS011;12936;52.006;4.350;2023-04-25T14:33:53;3.83;;;0.97;;
24859;SDS011;12936;52.006;4.350;2023-04-25T14:36:25;7.57;;;1.50;;
24859;SDS011;12936;52.006;4.350;2023-04-25T14:38:55;7.23;;;0.90;;
24859;SDS011;12936;52.006;4.350;2023-04-25T14:41:23;7.47;;;1.10;;
24859;SDS011;12936;52.006;4.350;2023-04-25T14:43:51;6.83;;;1.40;;
24859;SDS011;12936;52.006;4.350;2023-04-25T14:46:20;7.30;;;1.17;;
24859;SDS011;12936;52.006;4.350;2023-04-25T14:48:49;7.20;;;1.40;;
24859;SDS011;12936;52.006;4.350;2023-04-25T14:51:18;6.27;;;1.47;;
24859;SDS011;12936;52.006;4.350;2023-04-25T14:53:46;4.13;;;0.90;;
24859;SDS011;12936;52.006;4.350;2023-04-25T14:56:16;5.97;;;1.10;;
24859;SDS011;12936;52.006;4.350;2023-04-25T14:58:44;4.90;;;1.00;;
24859;SDS011;12936;52.006;4.350;2023-04-25T15:01:14;5.13;;;1.20;;
24859;SDS011;12936;52.006;4.350;2023-04-25T15:03:42;7.50;;;1.37;;
24859;SDS011;12936;52.006;4.350;2023-04-25T15:06:10;6.33;;;1.10;;
24859;SDS011;12936;52.006;4.350;2023-04-25T15:08:38;7.43;;;0.80;;
24859;SDS011;12936;52.006;4.350;2023-04-25T15:11:07;5.63;;;1.30;;
24859;SDS011;12936;52.006;4.350;2023-04-25T15:13:36;4.23;;;1.17;;